CheckWX is a tool to help pilots better visualize weather data.  It is not intended as a substitute for an official pre-flight weather briefing.

06:28:12 UTC

LFPG TAF
Charles de Gaulle International Airport
Paris, France
TAF LFPG 220500Z 2206/2312 12005KT CAVOK TX25/2215Z TN13/2206Z

Apr-22@
06:00 UTC

Apr-22 @ 06:00 UTC

Apr-23@
12:00 UTC

Apr-23 @ 12:00 UTC

TAF LFPG 220500Z 2206/2312 12005KT CAVOK TX25/2215Z TN13/2206Z
Wind
  • 120° at 5 KTS
Cloud Levels
  • No significant clouds